sensor_id;sensor_type;location;lat;lon;timestamp;temperature;humidity
23405;DHT22;11875;49.356;2.718;2023-02-16T00:01:29;7.00;99.90
23405;DHT22;11875;49.356;2.718;2023-02-16T00:03:55;6.90;99.90
23405;DHT22;11875;49.356;2.718;2023-02-16T00:06:22;6.90;99.90
23405;DHT22;11875;49.356;2.718;2023-02-16T00:08:51;6.80;99.90
23405;DHT22;11875;49.356;2.718;2023-02-16T00:11:34;6.80;99.90
23405;DHT22;11875;49.356;2.718;2023-02-16T00:14:20;6.70;99.90
23405;DHT22;11875;49.356;2.718;2023-02-16T00:16:48;6.90;99.90
23405;DHT22;11875;49.356;2.718;2023-02-16T00:19:23;7.50;99.90
23405;DHT22;11875;49.356;2.718;2023-02-16T00:21:51;6.50;99.90
23405;DHT22;11875;49.356;2.718;2023-02-16T00:24:17;6.50;99.90
23405;DHT22;11875;49.356;2.718;2023-02-16T00:26:44;6.60;99.90
23405;DHT22;11875;49.356;2.718;2023-02-16T00:29:16;6.60;99.90
23405;DHT22;11875;49.356;2.718;2023-02-16T00:31:42;6.60;99.90
23405;DHT22;11875;49.356;2.718;2023-02-16T00:36:49;7.20;99.90
23405;DHT22;11875;49.356;2.718;2023-02-16T00:39:14;7.30;99.90
23405;DHT22;11875;49.356;2.718;2023-02-16T00:41:40;6.80;99.90
23405;DHT22;11875;49.356;2.718;2023-02-16T00:44:22;6.70;99.90
23405;DHT22;11875;49.356;2.718;2023-02-16T00:46:50;6.80;99.90
23405;DHT22;11875;49.356;2.718;2023-02-16T00:49:18;6.80;99.90
23405;DHT22;11875;49.356;2.718;2023-02-16T00:51:45;7.20;99.90
23405;DHT22;11875;49.356;2.718;2023-02-16T00:54:10;6.80;99.90
23405;DHT22;11875;49.356;2.718;2023-02-16T00:56:37;6.60;99.90
23405;DHT22;11875;49.356;2.718;2023-02-16T00:59:04;6.50;99.90
23405;DHT22;11875;49.356;2.718;2023-02-16T01:01:32;6.60;99.90
23405;DHT22;11875;49.356;2.718;2023-02-16T01:04:00;6.70;99.90
23405;DHT22;11875;49.356;2.718;2023-02-16T01:06:26;6.70;99.90
23405;DHT22;11875;49.356;2.718;2023-02-16T01:09:14;6.90;99.90
23405;DHT22;11875;49.356;2.718;2023-02-16T01:11:59;7.00;99.90
23405;DHT22;11875;49.356;2.718;2023-02-16T01:14:25;7.10;99.90
23405;DHT22;11875;49.356;2.718;2023-02-16T01:16:51;7.20;99.90
23405;DHT22;11875;49.356;2.718;2023-02-16T01:19:17;7.20;99.90
23405;DHT22;11875;49.356;2.718;2023-02-16T01:21:42;7.20;99.90
23405;DHT22;11875;49.356;2.718;2023-02-16T01:24:08;7.30;99.90
23405;DHT22;11875;49.356;2.718;2023-02-16T01:26:45;7.60;99.90
23405;DHT22;11875;49.356;2.718;2023-02-16T01:29:18;6.90;99.90
23405;DHT22;11875;49.356;2.718;2023-02-16T01:31:44;6.70;99.90
23405;DHT22;11875;49.356;2.718;2023-02-16T01:34:10;6.60;99.90
23405;DHT22;11875;49.356;2.718;2023-02-16T01:36:38;6.40;99.90
23405;DHT22;11875;49.356;2.718;2023-02-16T01:39:05;6.20;99.90
23405;DHT22;11875;49.356;2.718;2023-02-16T01:44:48;6.30;99.90
23405;DHT22;11875;49.356;2.718;2023-02-16T01:47:48;6.30;99.90
23405;DHT22;11875;49.356;2.718;2023-02-16T01:50:22;6.40;99.90
23405;DHT22;11875;49.356;2.718;2023-02-16T01:52:59;6.40;99.90
23405;DHT22;11875;49.356;2.718;2023-02-16T01:55:33;6.70;99.90
23405;DHT22;11875;49.356;2.718;2023-02-16T01:58:11;6.40;99.90
23405;DHT22;11875;49.356;2.718;2023-02-16T02:06:13;6.40;99.90
23405;DHT22;11875;49.356;2.718;2023-02-16T02:08:50;6.50;99.90
23405;DHT22;11875;49.356;2.718;2023-02-16T02:11:49;6.70;99.90
23405;DHT22;11875;49.356;2.718;2023-02-16T02:14:19;6.90;99.90
23405;DHT22;11875;49.356;2.718;2023-02-16T02:16:55;7.00;99.90
23405;DHT22;11875;49.356;2.718;2023-02-16T02:19:21;7.10;99.90
23405;DHT22;11875;49.356;2.718;2023-02-16T02:27:37;7.00;99.90
23405;DHT22;11875;49.356;2.718;2023-02-16T02:32:47;6.70;99.90
23405;DHT22;11875;49.356;2.718;2023-02-16T02:38:52;6.50;99.90
23405;DHT22;11875;49.356;2.718;2023-02-16T02:44:29;6.40;99.90
23405;DHT22;11875;49.356;2.718;2023-02-16T02:46:56;6.30;99.90
23405;DHT22;11875;49.356;2.718;2023-02-16T02:49:21;6.40;99.90
23405;DHT22;11875;49.356;2.718;2023-02-16T02:51:48;6.50;99.90
23405;DHT22;11875;49.356;2.718;2023-02-16T02:54:24;6.60;99.90
23405;DHT22;11875;49.356;2.718;2023-02-16T03:05:33;6.70;99.90
23405;DHT22;11875;49.356;2.718;2023-02-16T03:08:04;6.70;99.90
23405;DHT22;11875;49.356;2.718;2023-02-16T03:10:59;7.10;99.90
23405;DHT22;11875;49.356;2.718;2023-02-16T03:13:50;6.70;99.90
23405;DHT22;11875;49.356;2.718;2023-02-16T03:16:22;6.60;99.90
23405;DHT22;11875;49.356;2.718;2023-02-16T03:18:50;6.70;99.90
23405;DHT22;11875;49.356;2.718;2023-02-16T03:21:35;6.70;99.90
23405;DHT22;11875;49.356;2.718;2023-02-16T03:24:23;6.60;99.90
23405;DHT22;11875;49.356;2.718;2023-02-16T03:27:09;6.70;99.90
23405;DHT22;11875;49.356;2.718;2023-02-16T03:29:55;6.60;99.90
23405;DHT22;11875;49.356;2.718;2023-02-16T03:32:22;6.60;99.90
23405;DHT22;11875;49.356;2.718;2023-02-16T03:34:48;6.50;99.90
23405;DHT22;11875;49.356;2.718;2023-02-16T03:37:13;6.40;99.90
23405;DHT22;11875;49.356;2.718;2023-02-16T03:39:39;6.40;99.90
23405;DHT22;11875;49.356;2.718;2023-02-16T03:42:23;7.00;99.90
23405;DHT22;11875;49.356;2.718;2023-02-16T03:44:50;6.40;99.90
23405;DHT22;11875;49.356;2.718;2023-02-16T03:47:16;6.40;99.90
23405;DHT22;11875;49.356;2.718;2023-02-16T03:49:41;6.30;99.90
23405;DHT22;11875;49.356;2.718;2023-02-16T03:52:07;6.30;99.90
23405;DHT22;11875;49.356;2.718;2023-02-16T03:54:33;6.30;99.90
23405;DHT22;11875;49.356;2.718;2023-02-16T03:56:59;7.30;99.90
23405;DHT22;11875;49.356;2.718;2023-02-16T03:59:24;7.30;99.90
23405;DHT22;11875;49.356;2.718;2023-02-16T04:01:50;6.60;99.90
23405;DHT22;11875;49.356;2.718;2023-02-16T04:04:16;6.60;99.90
23405;DHT22;11875;49.356;2.718;2023-02-16T04:06:41;6.50;99.90
23405;DHT22;11875;49.356;2.718;2023-02-16T04:09:07;6.60;99.90
23405;DHT22;11875;49.356;2.718;2023-02-16T04:11:32;6.60;99.90
23405;DHT22;11875;49.356;2.718;2023-02-16T04:14:16;6.60;99.90
23405;DHT22;11875;49.356;2.718;2023-02-16T04:16:42;6.70;99.90
23405;DHT22;11875;49.356;2.718;2023-02-16T04:19:07;7.30;99.90
23405;DHT22;11875;49.356;2.718;2023-02-16T04:21:33;6.80;99.90
23405;DHT22;11875;49.356;2.718;2023-02-16T04:23:59;6.80;99.90
23405;DHT22;11875;49.356;2.718;2023-02-16T04:26:25;6.40;99.90
23405;DHT22;11875;49.356;2.718;2023-02-16T04:28:50;6.40;99.90
23405;DHT22;11875;49.356;2.718;2023-02-16T04:31:16;7.20;99.90
23405;DHT22;11875;49.356;2.718;2023-02-16T04:33:41;6.30;99.90
23405;DHT22;11875;49.356;2.718;2023-02-16T04:36:08;6.70;99.90
23405;DHT22;11875;49.356;2.718;2023-02-16T04:38:34;6.20;99.90
23405;DHT22;11875;49.356;2.718;2023-02-16T04:40:59;6.30;99.90
23405;DHT22;11875;49.356;2.718;2023-02-16T04:43:25;6.40;99.90
23405;DHT22;11875;49.356;2.718;2023-02-16T04:45:51;6.60;99.90
23405;DHT22;11875;49.356;2.718;2023-02-16T04:48:16;6.70;99.90
23405;DHT22;11875;49.356;2.718;2023-02-16T04:50:42;6.60;99.90
23405;DHT22;11875;49.356;2.718;2023-02-16T04:53:07;6.70;99.90
23405;DHT22;11875;49.356;2.718;2023-02-16T04:55:33;6.60;99.90
23405;DHT22;11875;49.356;2.718;2023-02-16T04:57:59;6.50;99.90
23405;DHT22;11875;49.356;2.718;2023-02-16T05:00:25;7.10;99.90
23405;DHT22;11875;49.356;2.718;2023-02-16T05:02:50;6.40;99.90
23405;DHT22;11875;49.356;2.718;2023-02-16T05:05:16;6.40;99.90
23405;DHT22;11875;49.356;2.718;2023-02-16T05:07:42;6.30;99.90
23405;DHT22;11875;49.356;2.718;2023-02-16T05:10:07;6.70;99.90
23405;DHT22;11875;49.356;2.718;2023-02-16T05:12:33;6.40;99.90
23405;DHT22;11875;49.356;2.718;2023-02-16T05:15:18;6.50;99.90
23405;DHT22;11875;49.356;2.718;2023-02-16T05:17:43;6.90;99.90
23405;DHT22;11875;49.356;2.718;2023-02-16T05:20:10;6.60;99.90
23405;DHT22;11875;49.356;2.718;2023-02-16T05:22:36;6.70;99.90
23405;DHT22;11875;49.356;2.718;2023-02-16T05:25:05;6.70;99.90
23405;DHT22;11875;49.356;2.718;2023-02-16T05:27:30;6.80;99.90
23405;DHT22;11875;49.356;2.718;2023-02-16T05:29:57;7.00;99.90
23405;DHT22;11875;49.356;2.718;2023-02-16T05:32:23;6.80;99.90
23405;DHT22;11875;49.356;2.718;2023-02-16T05:34:49;6.80;99.90
23405;DHT22;11875;49.356;2.718;2023-02-16T05:37:17;6.80;99.90
23405;DHT22;11875;49.356;2.718;2023-02-16T05:39:43;6.60;99.90
23405;DHT22;11875;49.356;2.718;2023-02-16T05:42:08;6.80;99.90
23405;DHT22;11875;49.356;2.718;2023-02-16T05:44:35;6.90;99.90
23405;DHT22;11875;49.356;2.718;2023-02-16T05:47:01;6.40;99.90
23405;DHT22;11875;49.356;2.718;2023-02-16T05:49:27;6.30;99.90
23405;DHT22;11875;49.356;2.718;2023-02-16T05:51:52;6.30;99.90
23405;DHT22;11875;49.356;2.718;2023-02-16T05:54:18;6.20;99.90
23405;DHT22;11875;49.356;2.718;2023-02-16T05:56:45;6.40;99.90
23405;DHT22;11875;49.356;2.718;2023-02-16T05:59:12;6.40;99.90
23405;DHT22;11875;49.356;2.718;2023-02-16T06:01:37;6.80;99.90
23405;DHT22;11875;49.356;2.718;2023-02-16T06:04:06;6.40;99.90
23405;DHT22;11875;49.356;2.718;2023-02-16T06:06:33;6.30;99.90
23405;DHT22;11875;49.356;2.718;2023-02-16T06:08:58;6.40;99.90
23405;DHT22;11875;49.356;2.718;2023-02-16T06:11:24;6.30;99.90
23405;DHT22;11875;49.356;2.718;2023-02-16T06:14:10;6.60;99.90
23405;DHT22;11875;49.356;2.718;2023-02-16T06:16:38;6.60;99.90
23405;DHT22;11875;49.356;2.718;2023-02-16T06:19:04;6.60;99.90
23405;DHT22;11875;49.356;2.718;2023-02-16T06:21:30;6.60;99.90
23405;DHT22;11875;49.356;2.718;2023-02-16T06:23:55;6.40;99.90
23405;DHT22;11875;49.356;2.718;2023-02-16T06:26:21;6.50;99.90
23405;DHT22;11875;49.356;2.718;2023-02-16T06:28:47;6.40;99.90
23405;DHT22;11875;49.356;2.718;2023-02-16T06:31:12;6.40;99.90
23405;DHT22;11875;49.356;2.718;2023-02-16T06:33:38;6.40;99.90
23405;DHT22;11875;49.356;2.718;2023-02-16T06:36:05;6.40;99.90
23405;DHT22;11875;49.356;2.718;2023-02-16T06:38:31;6.30;99.90
23405;DHT22;11875;49.356;2.718;2023-02-16T06:40:56;6.50;99.90
23405;DHT22;11875;49.356;2.718;2023-02-16T06:43:22;6.70;99.90
23405;DHT22;11875;49.356;2.718;2023-02-16T06:45:48;6.90;99.90
23405;DHT22;11875;49.356;2.718;2023-02-16T06:48:13;7.10;99.90
23405;DHT22;11875;49.356;2.718;2023-02-16T06:50:39;7.20;99.90
23405;DHT22;11875;49.356;2.718;2023-02-16T06:53:05;7.20;99.90
23405;DHT22;11875;49.356;2.718;2023-02-16T06:55:30;7.30;99.90
23405;DHT22;11875;49.356;2.718;2023-02-16T06:58:01;7.20;99.90
23405;DHT22;11875;49.356;2.718;2023-02-16T07:00:27;7.20;99.90
23405;DHT22;11875;49.356;2.718;2023-02-16T07:02:54;7.00;99.90
23405;DHT22;11875;49.356;2.718;2023-02-16T07:05:20;6.90;99.90
23405;DHT22;11875;49.356;2.718;2023-02-16T07:07:45;6.80;99.90
23405;DHT22;11875;49.356;2.718;2023-02-16T07:10:11;6.80;99.90
23405;DHT22;11875;49.356;2.718;2023-02-16T07:12:37;6.90;99.90
23405;DHT22;11875;49.356;2.718;2023-02-16T07:15:03;6.90;99.90
23405;DHT22;11875;49.356;2.718;2023-02-16T07:17:29;6.90;99.90
23405;DHT22;11875;49.356;2.718;2023-02-16T07:19:54;6.90;99.90
23405;DHT22;11875;49.356;2.718;2023-02-16T07:22:20;7.10;99.90
23405;DHT22;11875;49.356;2.718;2023-02-16T07:24:46;7.30;99.90
23405;DHT22;11875;49.356;2.718;2023-02-16T07:27:11;7.30;99.90
23405;DHT22;11875;49.356;2.718;2023-02-16T07:29:37;7.40;99.90
23405;DHT22;11875;49.356;2.718;2023-02-16T07:32:03;7.40;99.90
23405;DHT22;11875;49.356;2.718;2023-02-16T07:34:29;7.40;99.90
23405;DHT22;11875;49.356;2.718;2023-02-16T07:36:55;7.40;99.90
23405;DHT22;11875;49.356;2.718;2023-02-16T07:39:21;7.30;99.90
23405;DHT22;11875;49.356;2.718;2023-02-16T07:41:46;7.30;99.90
23405;DHT22;11875;49.356;2.718;2023-02-16T07:44:12;7.80;99.90
23405;DHT22;11875;49.356;2.718;2023-02-16T07:46:38;7.40;99.90
23405;DHT22;11875;49.356;2.718;2023-02-16T07:49:03;7.50;99.90
23405;DHT22;11875;49.356;2.718;2023-02-16T07:51:30;7.40;99.90
23405;DHT22;11875;49.356;2.718;2023-02-16T07:53:58;7.40;99.90
23405;DHT22;11875;49.356;2.718;2023-02-16T07:56:29;7.30;99.90
23405;DHT22;11875;49.356;2.718;2023-02-16T07:58:57;7.30;99.90
23405;DHT22;11875;49.356;2.718;2023-02-16T08:01:23;7.10;99.90
23405;DHT22;11875;49.356;2.718;2023-02-16T08:03:49;7.10;99.90
23405;DHT22;11875;49.356;2.718;2023-02-16T08:06:16;7.10;99.90
23405;DHT22;11875;49.356;2.718;2023-02-16T08:08:42;7.30;99.90
23405;DHT22;11875;49.356;2.718;2023-02-16T08:11:09;7.30;99.90
23405;DHT22;11875;49.356;2.718;2023-02-16T08:13:35;7.40;99.90
23405;DHT22;11875;49.356;2.718;2023-02-16T08:16:01;7.40;99.90
23405;DHT22;11875;49.356;2.718;2023-02-16T08:18:27;7.30;99.90
23405;DHT22;11875;49.356;2.718;2023-02-16T08:20:54;7.20;99.90
23405;DHT22;11875;49.356;2.718;2023-02-16T08:23:21;7.10;99.90
23405;DHT22;11875;49.356;2.718;2023-02-16T08:25:47;7.20;99.90
23405;DHT22;11875;49.356;2.718;2023-02-16T08:28:12;7.20;99.90
23405;DHT22;11875;49.356;2.718;2023-02-16T08:30:39;7.10;99.90
23405;DHT22;11875;49.356;2.718;2023-02-16T08:33:05;7.10;99.90
23405;DHT22;11875;49.356;2.718;2023-02-16T08:35:30;7.10;99.90
23405;DHT22;11875;49.356;2.718;2023-02-16T08:37:58;7.00;99.90
23405;DHT22;11875;49.356;2.718;2023-02-16T08:40:24;6.90;99.90
23405;DHT22;11875;49.356;2.718;2023-02-16T08:42:51;6.80;99.90
23405;DHT22;11875;49.356;2.718;2023-02-16T08:45:17;7.40;99.90
23405;DHT22;11875;49.356;2.718;2023-02-16T08:47:42;6.90;99.90
23405;DHT22;11875;49.356;2.718;2023-02-16T08:50:09;6.90;99.90
23405;DHT22;11875;49.356;2.718;2023-02-16T08:52:36;7.10;99.90
23405;DHT22;11875;49.356;2.718;2023-02-16T08:55:02;7.20;99.90
23405;DHT22;11875;49.356;2.718;2023-02-16T08:57:27;7.20;99.90
23405;DHT22;11875;49.356;2.718;2023-02-16T08:59:53;7.30;99.90
23405;DHT22;11875;49.356;2.718;2023-02-16T09:02:39;7.60;99.90
23405;DHT22;11875;49.356;2.718;2023-02-16T09:05:04;7.90;99.90
23405;DHT22;11875;49.356;2.718;2023-02-16T09:07:30;8.00;99.90
23405;DHT22;11875;49.356;2.718;2023-02-16T09:10:00;8.00;99.90
23405;DHT22;11875;49.356;2.718;2023-02-16T09:12:26;8.10;99.90
23405;DHT22;11875;49.356;2.718;2023-02-16T09:14:53;8.10;99.90
23405;DHT22;11875;49.356;2.718;2023-02-16T09:17:18;8.10;99.90
23405;DHT22;11875;49.356;2.718;2023-02-16T09:19:44;8.20;99.90
23405;DHT22;11875;49.356;2.718;2023-02-16T09:22:09;8.40;99.90
23405;DHT22;11875;49.356;2.718;2023-02-16T09:24:35;8.40;99.90
23405;DHT22;11875;49.356;2.718;2023-02-16T09:27:01;8.40;99.90
23405;DHT22;11875;49.356;2.718;2023-02-16T09:29:28;8.50;99.90
23405;DHT22;11875;49.356;2.718;2023-02-16T09:31:54;9.30;99.90
23405;DHT22;11875;49.356;2.718;2023-02-16T09:34:21;8.60;99.90
23405;DHT22;11875;49.356;2.718;2023-02-16T09:36:48;8.40;99.90
23405;DHT22;11875;49.356;2.718;2023-02-16T09:39:14;8.40;99.90
23405;DHT22;11875;49.356;2.718;2023-02-16T09:46:55;8.40;99.90
23405;DHT22;11875;49.356;2.718;2023-02-16T09:49:40;8.40;99.90
23405;DHT22;11875;49.356;2.718;2023-02-16T09:52:27;8.40;99.90
23405;DHT22;11875;49.356;2.718;2023-02-16T09:54:57;8.40;99.90
23405;DHT22;11875;49.356;2.718;2023-02-16T09:57:39;8.50;99.90
23405;DHT22;11875;49.356;2.718;2023-02-16T10:00:12;8.60;99.90
23405;DHT22;11875;49.356;2.718;2023-02-16T10:03:11;8.70;99.90
23405;DHT22;11875;49.356;2.718;2023-02-16T10:08:42;8.70;99.90
23405;DHT22;11875;49.356;2.718;2023-02-16T10:11:11;8.80;99.90
23405;DHT22;11875;49.356;2.718;2023-02-16T10:14:03;9.00;99.90
23405;DHT22;11875;49.356;2.718;2023-02-16T10:16:37;9.10;99.90
23405;DHT22;11875;49.356;2.718;2023-02-16T10:19:21;9.20;99.90
23405;DHT22;11875;49.356;2.718;2023-02-16T10:21:54;9.20;99.90
23405;DHT22;11875;49.356;2.718;2023-02-16T10:24:20;9.20;99.90
23405;DHT22;11875;49.356;2.718;2023-02-16T10:26:58;9.20;99.90
23405;DHT22;11875;49.356;2.718;2023-02-16T10:29:26;9.30;99.90
23405;DHT22;11875;49.356;2.718;2023-02-16T10:34:51;9.30;99.90
23405;DHT22;11875;49.356;2.718;2023-02-16T10:37:50;9.40;99.90
23405;DHT22;11875;49.356;2.718;2023-02-16T10:43:12;9.30;99.90
23405;DHT22;11875;49.356;2.718;2023-02-16T10:45:51;9.40;99.90
23405;DHT22;11875;49.356;2.718;2023-02-16T10:48:18;9.50;99.90
23405;DHT22;11875;49.356;2.718;2023-02-16T10:50:59;9.60;99.90
23405;DHT22;11875;49.356;2.718;2023-02-16T10:53:43;9.60;99.90
23405;DHT22;11875;49.356;2.718;2023-02-16T10:59:10;9.90;99.90
23405;DHT22;11875;49.356;2.718;2023-02-16T11:01:41;9.90;99.90
23405;DHT22;11875;49.356;2.718;2023-02-16T11:04:08;9.90;99.90
23405;DHT22;11875;49.356;2.718;2023-02-16T11:09:33;9.90;99.90
23405;DHT22;11875;49.356;2.718;2023-02-16T11:12:00;9.90;99.90
23405;DHT22;11875;49.356;2.718;2023-02-16T11:14:29;10.00;99.90
23405;DHT22;11875;49.356;2.718;2023-02-16T11:17:11;10.20;99.90
23405;DHT22;11875;49.356;2.718;2023-02-16T11:19:54;10.30;99.90
23405;DHT22;11875;49.356;2.718;2023-02-16T11:22:27;10.40;99.90
23405;DHT22;11875;49.356;2.718;2023-02-16T11:24:53;10.50;99.90
23405;DHT22;11875;49.356;2.718;2023-02-16T11:27:22;10.60;99.90
23405;DHT22;11875;49.356;2.718;2023-02-16T11:29:48;10.60;99.90
23405;DHT22;11875;49.356;2.718;2023-02-16T11:32:18;10.80;99.90
23405;DHT22;11875;49.356;2.718;2023-02-16T11:34:50;10.80;99.90
23405;DHT22;11875;49.356;2.718;2023-02-16T11:37:26;10.90;99.90
23405;DHT22;11875;49.356;2.718;2023-02-16T11:40:03;11.00;99.90
23405;DHT22;11875;49.356;2.718;2023-02-16T11:42:37;11.00;99.90
23405;DHT22;11875;49.356;2.718;2023-02-16T11:45:06;11.10;99.90
23405;DHT22;11875;49.356;2.718;2023-02-16T11:47:37;11.20;99.90
23405;DHT22;11875;49.356;2.718;2023-02-16T11:50:16;11.40;99.90
23405;DHT22;11875;49.356;2.718;2023-02-16T11:52:50;11.50;99.90
23405;DHT22;11875;49.356;2.718;2023-02-16T11:55:26;11.50;99.90
23405;DHT22;11875;49.356;2.718;2023-02-16T11:57:53;11.70;99.90
23405;DHT22;11875;49.356;2.718;2023-02-16T12:00:22;11.60;99.90
23405;DHT22;11875;49.356;2.718;2023-02-16T12:05:53;11.60;99.90
23405;DHT22;11875;49.356;2.718;2023-02-16T12:08:32;11.70;99.90
23405;DHT22;11875;49.356;2.718;2023-02-16T12:19:46;11.80;99.90
23405;DHT22;11875;49.356;2.718;2023-02-16T12:22:37;11.80;99.90
23405;DHT22;11875;49.356;2.718;2023-02-16T12:33:26;12.00;99.90
23405;DHT22;11875;49.356;2.718;2023-02-16T12:44:23;12.40;99.90
23405;DHT22;11875;49.356;2.718;2023-02-16T12:46:59;12.60;99.90
23405;DHT22;11875;49.356;2.718;2023-02-16T12:49:35;12.70;99.90
23405;DHT22;11875;49.356;2.718;2023-02-16T12:52:24;12.70;99.90
23405;DHT22;11875;49.356;2.718;2023-02-16T12:54:55;12.70;99.90
23405;DHT22;11875;49.356;2.718;2023-02-16T12:57:25;12.90;99.90
23405;DHT22;11875;49.356;2.718;2023-02-16T13:00:00;13.00;99.90
23405;DHT22;11875;49.356;2.718;2023-02-16T13:02:40;13.10;99.90
23405;DHT22;11875;49.356;2.718;2023-02-16T13:05:18;13.20;99.90
23405;DHT22;11875;49.356;2.718;2023-02-16T13:07:48;13.30;99.90
23405;DHT22;11875;49.356;2.718;2023-02-16T13:10:26;13.30;99.90
23405;DHT22;11875;49.356;2.718;2023-02-16T13:13:00;13.20;99.90
23405;DHT22;11875;49.356;2.718;2023-02-16T13:18:27;13.30;99.90
23405;DHT22;11875;49.356;2.718;2023-02-16T13:21:03;13.30;99.90
23405;DHT22;11875;49.356;2.718;2023-02-16T13:23:56;13.30;99.90
23405;DHT22;11875;49.356;2.718;2023-02-16T13:43:44;13.90;99.90
23405;DHT22;11875;49.356;2.718;2023-02-16T13:46:24;13.80;99.90
23405;DHT22;11875;49.356;2.718;2023-02-16T13:48:51;13.90;99.90
23405;DHT22;11875;49.356;2.718;2023-02-16T13:51:20;13.90;99.90
23405;DHT22;11875;49.356;2.718;2023-02-16T13:53:55;13.90;99.90
23405;DHT22;11875;49.356;2.718;2023-02-16T13:58:54;14.20;99.90
23405;DHT22;11875;49.356;2.718;2023-02-16T14:03:57;14.40;99.90
23405;DHT22;11875;49.356;2.718;2023-02-16T14:06:27;14.40;99.90
23405;DHT22;11875;49.356;2.718;2023-02-16T14:12:11;14.50;99.90
23405;DHT22;11875;49.356;2.718;2023-02-16T14:25:13;14.60;99.90
23405;DHT22;11875;49.356;2.718;2023-02-16T14:28:00;14.50;99.90
23405;DHT22;11875;49.356;2.718;2023-02-16T14:30:46;14.50;99.90
23405;DHT22;11875;49.356;2.718;2023-02-16T14:38:29;14.50;99.90
23405;DHT22;11875;49.356;2.718;2023-02-16T14:40:58;14.50;99.90
23405;DHT22;11875;49.356;2.718;2023-02-16T14:43:26;14.50;99.90
23405;DHT22;11875;49.356;2.718;2023-02-16T14:59:25;14.50;99.90
23405;DHT22;11875;49.356;2.718;2023-02-16T15:01:51;14.50;99.90
23405;DHT22;11875;49.356;2.718;2023-02-16T15:04:28;14.50;99.90
23405;DHT22;11875;49.356;2.718;2023-02-16T15:06:56;14.50;99.90
23405;DHT22;11875;49.356;2.718;2023-02-16T15:09:29;14.60;99.90
23405;DHT22;11875;49.356;2.718;2023-02-16T15:12:02;14.60;99.90
23405;DHT22;11875;49.356;2.718;2023-02-16T15:17:37;14.50;99.90
23405;DHT22;11875;49.356;2.718;2023-02-16T15:20:20;14.60;99.90
23405;DHT22;11875;49.356;2.718;2023-02-16T15:22:52;14.50;99.90
23405;DHT22;11875;49.356;2.718;2023-02-16T15:25:34;14.40;99.90
23405;DHT22;11875;49.356;2.718;2023-02-16T15:28:13;14.50;99.90
23405;DHT22;11875;49.356;2.718;2023-02-16T15:30:45;14.50;99.90
23405;DHT22;11875;49.356;2.718;2023-02-16T15:35:57;14.30;99.90
23405;DHT22;11875;49.356;2.718;2023-02-16T15:38:33;14.10;99.90
23405;DHT22;11875;49.356;2.718;2023-02-16T15:41:02;14.30;99.90
23405;DHT22;11875;49.356;2.718;2023-02-16T15:43:33;14.30;99.90
23405;DHT22;11875;49.356;2.718;2023-02-16T15:46:02;14.20;99.90
23405;DHT22;11875;49.356;2.718;2023-02-16T15:51:13;14.20;99.90
23405;DHT22;11875;49.356;2.718;2023-02-16T15:53:51;14.20;99.90
23405;DHT22;11875;49.356;2.718;2023-02-16T15:58:50;14.20;99.90
23405;DHT22;11875;49.356;2.718;2023-02-16T16:01:26;14.30;99.90
23405;DHT22;11875;49.356;2.718;2023-02-16T16:04:00;14.30;99.90
23405;DHT22;11875;49.356;2.718;2023-02-16T16:06:32;14.30;99.90
23405;DHT22;11875;49.356;2.718;2023-02-16T16:08:58;14.20;99.90
23405;DHT22;11875;49.356;2.718;2023-02-16T16:11:24;14.10;99.90
23405;DHT22;11875;49.356;2.718;2023-02-16T16:13:50;14.10;99.90
23405;DHT22;11875;49.356;2.718;2023-02-16T16:16:16;14.10;99.90
23405;DHT22;11875;49.356;2.718;2023-02-16T16:18:47;14.00;99.90
23405;DHT22;11875;49.356;2.718;2023-02-16T16:21:16;14.10;99.90
23405;DHT22;11875;49.356;2.718;2023-02-16T16:26:29;14.10;99.90
23405;DHT22;11875;49.356;2.718;2023-02-16T16:28:55;14.10;99.90
23405;DHT22;11875;49.356;2.718;2023-02-16T16:36:20;14.10;99.90
23405;DHT22;11875;49.356;2.718;2023-02-16T16:39:08;14.10;99.90
23405;DHT22;11875;49.356;2.718;2023-02-16T16:41:35;14.10;99.90
23405;DHT22;11875;49.356;2.718;2023-02-16T16:44:00;14.00;99.90
23405;DHT22;11875;49.356;2.718;2023-02-16T16:46:27;14.00;99.90
23405;DHT22;11875;49.356;2.718;2023-02-16T16:49:00;14.00;99.90
23405;DHT22;11875;49.356;2.718;2023-02-16T16:51:40;14.00;99.90
23405;DHT22;11875;49.356;2.718;2023-02-16T16:56:37;14.00;99.90
23405;DHT22;11875;49.356;2.718;2023-02-16T16:59:04;14.10;99.90
23405;DHT22;11875;49.356;2.718;2023-02-16T17:01:30;14.20;99.90
23405;DHT22;11875;49.356;2.718;2023-02-16T17:03:55;14.40;99.90
23405;DHT22;11875;49.356;2.718;2023-02-16T17:06:22;14.40;99.90
23405;DHT22;11875;49.356;2.718;2023-02-16T17:08:48;14.30;99.90
23405;DHT22;11875;49.356;2.718;2023-02-16T17:11:27;14.20;99.90
23405;DHT22;11875;49.356;2.718;2023-02-16T17:13:54;14.20;99.90
23405;DHT22;11875;49.356;2.718;2023-02-16T17:16:34;14.20;99.90
23405;DHT22;11875;49.356;2.718;2023-02-16T17:19:00;14.20;99.90
23405;DHT22;11875;49.356;2.718;2023-02-16T17:21:27;14.10;99.90
23405;DHT22;11875;49.356;2.718;2023-02-16T17:23:53;14.00;99.90
23405;DHT22;11875;49.356;2.718;2023-02-16T17:26:22;14.00;99.90
23405;DHT22;11875;49.356;2.718;2023-02-16T17:28:48;13.90;99.90
23405;DHT22;11875;49.356;2.718;2023-02-16T17:31:14;13.80;99.90
23405;DHT22;11875;49.356;2.718;2023-02-16T17:33:40;13.80;99.90
23405;DHT22;11875;49.356;2.718;2023-02-16T17:36:06;13.80;99.90
23405;DHT22;11875;49.356;2.718;2023-02-16T17:38:33;13.70;99.90
23405;DHT22;11875;49.356;2.718;2023-02-16T17:40:59;13.70;99.90
23405;DHT22;11875;49.356;2.718;2023-02-16T17:43:25;13.80;99.90
23405;DHT22;11875;49.356;2.718;2023-02-16T17:45:53;13.80;99.90
23405;DHT22;11875;49.356;2.718;2023-02-16T17:48:25;13.70;99.90
23405;DHT22;11875;49.356;2.718;2023-02-16T17:50:52;13.70;99.90
23405;DHT22;11875;49.356;2.718;2023-02-16T17:53:22;13.70;99.90
23405;DHT22;11875;49.356;2.718;2023-02-16T17:55:49;13.80;99.90
23405;DHT22;11875;49.356;2.718;2023-02-16T17:58:17;13.60;99.90
23405;DHT22;11875;49.356;2.718;2023-02-16T18:00:44;13.50;99.90
23405;DHT22;11875;49.356;2.718;2023-02-16T18:03:10;13.50;99.90
23405;DHT22;11875;49.356;2.718;2023-02-16T18:05:36;13.60;99.90
23405;DHT22;11875;49.356;2.718;2023-02-16T18:08:02;13.50;99.90
23405;DHT22;11875;49.356;2.718;2023-02-16T18:10:45;13.50;99.90
23405;DHT22;11875;49.356;2.718;2023-02-16T18:13:13;13.60;99.90
23405;DHT22;11875;49.356;2.718;2023-02-16T18:15:40;13.50;99.90
23405;DHT22;11875;49.356;2.718;2023-02-16T18:18:06;13.50;99.90
23405;DHT22;11875;49.356;2.718;2023-02-16T18:20:32;13.40;99.90
23405;DHT22;11875;49.356;2.718;2023-02-16T18:22:58;13.40;99.90
23405;DHT22;11875;49.356;2.718;2023-02-16T18:25:24;13.40;99.90
23405;DHT22;11875;49.356;2.718;2023-02-16T18:27:49;13.30;99.90
23405;DHT22;11875;49.356;2.718;2023-02-16T18:30:16;13.20;99.90
23405;DHT22;11875;49.356;2.718;2023-02-16T18:32:42;13.30;99.90
23405;DHT22;11875;49.356;2.718;2023-02-16T18:35:10;13.30;99.90
23405;DHT22;11875;49.356;2.718;2023-02-16T18:37:37;13.30;99.90
23405;DHT22;11875;49.356;2.718;2023-02-16T18:40:03;13.20;99.90